Time;durP1;ratioP1;P1;durP2;ratioP2;P2;SDS_P1;SDS_P2;PMS_P1;PMS_P2;Temp;Humidity;BMP_temperature;BMP_pressure;BME280_temperature;BME280_humidity;BME280_pressure;Samples;Min_cycle;Max_cycle;Signal;HPM_P1;HPM_P2
2022/03/28 00:01:11;;;;;;;57.60;27.13;;;;;;;4.44;48.63;101283.50;4994076;28;20029;-80
2022/03/28 00:03:37;;;;;;;53.72;26.25;;;;;;;4.37;48.73;101284.34;4993635;28;20038;-79
2022/03/28 00:06:03;;;;;;;56.42;24.85;;;;;;;4.39;48.83;101289.56;4993395;28;20091;-79
2022/03/28 00:08:29;;;;;;;59.00;26.00;;;;;;;4.42;48.82;101289.53;4992661;28;20034;-79
2022/03/28 00:10:56;;;;;;;56.17;26.27;;;;;;;4.45;50.37;101287.91;4992124;28;20431;-79
2022/03/28 00:13:23;;;;;;;56.00;26.88;;;;;;;4.40;50.08;101275.03;4993880;28;20511;-79
2022/03/28 00:15:49;;;;;;;58.97;25.83;;;;;;;4.46;50.18;101278.22;4994122;28;20037;-79
2022/03/28 00:18:16;;;;;;;51.33;25.08;;;;;;;4.46;49.94;101275.41;4994028;28;20042;-79
2022/03/28 00:20:42;;;;;;;63.42;26.38;;;;;;;4.46;50.22;101275.41;5008857;28;20046;-81
2022/03/28 00:23:09;;;;;;;53.70;25.73;;;;;;;4.46;49.91;101275.41;4993910;28;20049;-80
2022/03/28 00:25:36;;;;;;;51.08;24.63;;;;;;;4.43;49.22;101274.22;4992872;28;20165;-80
2022/03/28 00:28:03;;;;;;;55.03;24.35;;;;;;;4.33;49.74;101259.00;4992927;28;20038;-80
2022/03/28 00:30:29;;;;;;;51.95;24.33;;;;;;;4.37;49.48;101269.44;4992992;28;20027;-79
2022/03/28 00:32:55;;;;;;;56.40;27.27;;;;;;;4.32;49.77;101263.00;4978565;28;20029;-82
2022/03/28 00:35:24;;;;;;;54.90;24.92;;;;;;;4.29;49.71;101260.22;5018909;28;20060;-80
2022/03/28 00:37:50;;;;;;;54.88;22.75;;;;;;;4.27;49.97;101254.19;5005803;28;20030;-79
2022/03/28 00:40:17;;;;;;;52.17;24.13;;;;;;;4.26;50.85;101261.03;5017423;28;20037;-78
2022/03/28 00:42:45;;;;;;;47.05;22.58;;;;;;;4.22;50.70;101249.78;5019957;28;20034;-80
2022/03/28 00:45:12;;;;;;;50.50;23.90;;;;;;;4.18;50.91;101246.19;5017014;28;20288;-79
2022/03/28 00:47:46;;;;;;;51.33;22.50;;;;;;;4.20;50.99;101243.75;5016075;28;20041;-79
2022/03/28 00:50:17;;;;;;;52.88;22.30;;;;;;;4.17;51.25;101241.75;5048725;28;20036;-78
2022/03/28 00:52:45;;;;;;;51.30;22.87;;;;;;;4.17;51.47;101247.41;5017314;28;20049;-79
2022/03/28 00:55:11;;;;;;;48.33;24.27;;;;;;;4.15;51.13;101243.38;4999948;28;20022;-79
2022/03/28 00:57:36;;;;;;;51.35;23.35;;;;;;;3.99;51.20;101217.72;5016867;28;20029;-78
2022/03/28 01:00:06;;;;;;;42.65;21.90;;;;;;;4.08;51.49;101232.97;5013935;28;20375;-79
2022/03/28 01:02:32;;;;;;;46.60;22.15;;;;;;;4.09;51.17;101234.56;5016488;28;20030;-79
2022/03/28 01:04:59;;;;;;;52.47;23.17;;;;;;;4.08;52.09;101227.31;4982893;28;20030;-80
2022/03/28 01:07:28;;;;;;;41.58;21.55;;;;;;;4.04;52.45;101220.09;5016423;28;20053;-79
2022/03/28 01:10:10;;;;;;;52.92;21.38;;;;;;;4.06;53.85;101226.91;4999053;28;20021;-80
2022/03/28 01:12:51;;;;;;;;;;;;;;;4.04;54.32;101218.09;5034815;28;20486;-80
2022/03/28 01:15:16;;;;;;;46.28;18.67;;;;;;;4.05;52.53;101219.69;5016623;28;20263;-79
2022/03/28 01:20:32;;;;;;;42.40;19.27;;;;;;;4.02;53.47;101214.06;5033533;28;20521;-80
2022/03/28 01:23:12;;;;;;;45.65;20.40;;;;;;;3.93;53.98;101200.44;5002403;28;20394;-78
2022/03/28 01:25:38;;;;;;;43.45;19.38;;;;;;;3.92;54.36;101202.44;5020508;28;20064;-79
2022/03/28 01:28:05;;;;;;;39.25;19.48;;;;;;;3.92;54.35;101204.47;5046166;28;20036;-78
2022/03/28 01:30:33;;;;;;;50.03;20.00;;;;;;;3.94;54.50;101198.44;5025661;28;20029;-79
2022/03/28 01:33:00;;;;;;;50.42;19.50;;;;;;;3.93;55.09;101200.44;5007309;28;20037;-78
2022/03/28 01:35:35;;;;;;;44.50;19.45;;;;;;;3.91;55.16;101197.22;5037932;28;20052;-78
2022/03/28 01:38:04;;;;;;;46.30;18.63;;;;;;;3.91;55.04;101192.38;5038309;28;20038;-80
2022/03/28 01:40:30;;;;;;;44.58;19.50;;;;;;;3.94;55.55;101195.59;5023467;28;20033;-79
2022/03/28 01:42:57;;;;;;;43.42;19.42;;;;;;;3.92;55.49;101190.38;5006512;28;20041;-78
2022/03/28 01:45:24;;;;;;;41.78;19.23;;;;;;;3.91;56.08;101185.94;5022806;28;20033;-79
2022/03/28 01:47:51;;;;;;;45.95;18.08;;;;;;;3.87;56.06;101179.53;5008751;28;20036;-79
2022/03/28 01:50:17;;;;;;;40.42;18.52;;;;;;;3.93;56.19;101175.06;5010748;28;20033;-78
2022/03/28 01:52:42;;;;;;;41.05;18.83;;;;;;;3.88;56.47;101165.03;4994482;28;20033;-79
2022/03/28 01:55:10;;;;;;;38.92;18.52;;;;;;;3.91;57.24;101169.84;5008783;28;20266;-79
2022/03/28 01:57:46;;;;;;;43.78;18.75;;;;;;;3.88;58.28;101158.59;5010854;28;20037;-80
2022/03/28 02:00:17;;;;;;;42.42;18.98;;;;;;;3.90;58.47;101173.06;5044924;28;20025;-78
2022/03/28 02:02:47;;;;;;;46.80;19.90;;;;;;;3.89;58.48;101163.84;5025117;28;20049;-79
2022/03/28 02:05:15;;;;;;;40.88;18.33;;;;;;;3.89;58.39;101154.56;5006699;28;20059;-79
2022/03/28 02:07:43;;;;;;;41.10;18.73;;;;;;;3.96;59.07;101151.69;5020650;28;20037;-78
2022/03/28 02:10:09;;;;;;;36.35;18.08;;;;;;;4.01;59.28;101145.63;5005046;28;20052;-79
2022/03/28 02:12:41;;;;;;;41.58;18.55;;;;;;;4.11;59.84;101146.75;5038975;28;20033;-79
2022/03/28 02:15:08;;;;;;;32.78;16.15;;;;;;;4.14;60.28;101148.75;5038712;28;20101;-79
2022/03/28 02:17:36;;;;;;;37.15;17.67;;;;;;;4.12;59.61;101134.28;5022892;28;20107;-78
2022/03/28 02:20:05;;;;;;;33.85;17.08;;;;;;;4.08;60.09;101127.88;5017887;28;20058;-79
2022/03/28 02:22:33;;;;;;;44.35;17.92;;;;;;;4.08;59.85;101134.31;5009511;28;20420;-79
2022/03/28 02:25:00;;;;;;;36.42;17.83;;;;;;;4.08;59.75;101134.31;5029084;28;20026;-78
2022/03/28 02:27:34;;;;;;;35.50;16.50;;;;;;;4.09;59.74;101135.91;5045539;28;20538;-78
2022/03/28 02:30:14;;;;;;;33.42;16.85;;;;;;;4.12;60.04;101131.44;5036991;28;20034;-78
2022/03/28 02:32:41;;;;;;;37.25;17.58;;;;;;;4.17;59.58;101133.81;5035058;28;20044;-79
2022/03/28 02:35:08;;;;;;;35.97;17.73;;;;;;;4.13;60.06;101125.41;5015446;28;20041;-77
2022/03/28 02:37:43;;;;;;;34.30;16.15;;;;;;;4.16;60.14;101120.94;5032674;28;20026;-78
2022/03/28 02:40:12;;;;;;;34.03;16.52;;;;;;;4.16;60.11;101113.28;5011996;28;20077;-79
2022/03/28 02:42:39;;;;;;;33.85;16.33;;;;;;;4.23;59.84;101115.25;5015412;28;20467;-78
2022/03/28 02:45:10;;;;;;;35.45;16.88;;;;;;;4.25;60.16;101112.81;5018368;28;20025;-80
2022/03/28 02:47:44;;;;;;;35.15;16.80;;;;;;;4.26;59.47;101115.22;5034212;28;20040;-79
2022/03/28 02:50:09;;;;;;;34.20;16.35;;;;;;;4.24;59.74;101100.72;5019824;28;20088;-78
2022/03/28 02:52:37;;;;;;;30.30;15.25;;;;;;;4.28;59.84;101103.53;5024064;28;20046;-79
2022/03/28 02:55:06;;;;;;;33.65;15.13;;;;;;;4.27;59.60;101104.75;5026501;28;20049;-79
2022/03/28 02:57:33;;;;;;;34.53;15.43;;;;;;;4.27;59.78;101099.09;5024355;28;20032;-77
2022/03/28 02:59:59;;;;;;;36.85;16.17;;;;;;;4.31;59.78;101103.50;5015645;28;20109;-78
2022/03/28 03:02:25;;;;;;;31.40;15.73;;;;;;;4.31;59.75;101100.66;5012950;28;20053;-79
2022/03/28 03:04:53;;;;;;;35.60;16.15;;;;;;;4.32;59.70;101099.47;5028896;28;20044;-78
2022/03/28 03:07:19;;;;;;;39.03;17.25;;;;;;;4.33;60.07;101095.44;5014179;28;20387;-80
2022/03/28 03:09:44;;;;;;;41.42;16.48;;;;;;;4.31;59.86;101100.66;5012599;28;20060;-79
2022/03/28 03:12:12;;;;;;;34.88;15.82;;;;;;;4.27;60.00;101090.66;5014010;28;20029;-79
2022/03/28 03:14:37;;;;;;;35.70;15.70;;;;;;;4.27;59.90;101102.72;5014087;28;20030;-79
2022/03/28 03:17:04;;;;;;;30.88;15.15;;;;;;;4.20;60.17;101091.50;5014090;28;20033;-79
2022/03/28 03:19:30;;;;;;;36.25;17.15;;;;;;;4.24;59.96;101103.53;5012706;28;20060;-79
2022/03/28 03:21:56;;;;;;;30.40;14.57;;;;;;;4.26;59.69;101103.94;5012887;28;20029;-79
2022/03/28 03:24:23;;;;;;;33.38;15.55;;;;;;;4.26;60.06;101100.31;4996281;28;20025;-78
2022/03/28 03:26:51;;;;;;;26.42;15.23;;;;;;;4.21;59.87;101093.09;5013106;28;20053;-78
2022/03/28 03:29:17;;;;;;;40.70;17.38;;;;;;;4.24;59.58;101092.25;5014583;28;20092;-80
2022/03/28 03:31:42;;;;;;;29.33;15.13;;;;;;;4.23;59.50;101098.34;5013236;28;20053;-78
2022/03/28 03:34:09;;;;;;;30.58;15.55;;;;;;;4.27;60.09;101102.72;5013301;28;20494;-78
2022/03/28 03:36:35;;;;;;;36.25;15.93;;;;;;;4.27;59.60;101104.75;5013137;28;20121;-79
2022/03/28 03:39:03;;;;;;;32.15;14.48;;;;;;;4.28;59.70;101098.69;5014519;28;20387;-79
2022/03/28 03:41:28;;;;;;;31.55;15.15;;;;;;;4.27;59.87;101101.94;4979871;28;20112;-78
2022/03/28 03:43:54;;;;;;;27.10;13.85;;;;;;;4.25;59.39;101105.16;5013148;28;20468;-78
2022/03/28 03:46:21;;;;;;;28.27;15.15;;;;;;;4.24;59.97;101105.59;5012950;28;20038;-79
2022/03/28 03:48:47;;;;;;;34.08;17.13;;;;;;;4.01;59.94;101077.97;5012522;28;20105;-80
2022/03/28 03:51:13;;;;;;;48.67;24.25;;;;;;;4.17;60.22;101108.47;5014302;28;20057;-78
2022/03/28 03:53:40;;;;;;;37.42;16.55;;;;;;;4.14;59.94;101092.38;5014444;28;20036;-79
2022/03/28 03:56:06;;;;;;;31.60;14.93;;;;;;;4.13;60.41;101100.03;5031084;28;20462;-80
2022/03/28 03:58:32;;;;;;;34.67;15.82;;;;;;;4.10;60.02;101095.22;5013774;28;20045;-79
2022/03/28 04:00:57;;;;;;;31.08;14.52;;;;;;;4.05;60.78;101094.84;5013360;28;20375;-80
2022/03/28 04:03:23;;;;;;;33.67;15.32;;;;;;;3.98;60.24;101087.28;5028672;28;20077;-79
2022/03/28 04:05:48;;;;;;;33.17;15.70;;;;;;;3.98;60.79;101092.91;5014604;28;20050;-80
2022/03/28 04:08:15;;;;;;;32.15;13.70;;;;;;;3.96;60.53;101088.91;5012774;28;20537;-80
2022/03/28 04:10:42;;;;;;;31.38;14.68;;;;;;;3.95;60.33;101079.63;5032892;28;20122;-79
2022/03/28 04:13:10;;;;;;;41.05;14.30;;;;;;;3.96;61.08;101084.06;5016344;28;20033;-80
2022/03/28 04:15:38;;;;;;;40.42;14.75;;;;;;;3.91;60.70;101067.59;4983524;28;20048;-79
2022/03/28 04:18:04;;;;;;;32.50;14.73;;;;;;;3.88;60.75;101069.25;5014606;28;20121;-79
2022/03/28 04:20:32;;;;;;;37.75;15.45;;;;;;;3.86;60.93;101070.84;5033885;28;20077;-80
2022/03/28 04:22:58;;;;;;;33.42;15.68;;;;;;;3.87;60.87;101073.25;5037241;28;20032;-80
2022/03/28 04:25:26;;;;;;;27.27;14.48;;;;;;;3.91;61.11;101084.50;5035880;28;20037;-80
2022/03/28 04:27:51;;;;;;;37.40;14.95;;;;;;;3.88;60.69;101072.06;5037824;28;20029;-81
2022/03/28 04:30:19;;;;;;;30.70;13.95;;;;;;;3.90;61.52;101074.44;5040447;28;20045;-81
2022/03/28 04:32:44;;;;;;;36.25;15.40;;;;;;;3.87;61.50;101070.44;5021926;28;20021;-79
2022/03/28 04:35:12;;;;;;;35.80;14.18;;;;;;;3.95;61.63;101074.00;5037885;28;20055;-79
2022/03/28 04:37:38;;;;;;;30.27;14.70;;;;;;;4.00;61.16;101079.19;5005008;28;20117;-79
2022/03/28 04:40:08;;;;;;;27.48;13.68;;;;;;;4.03;61.41;101064.28;5037694;28;20083;-81
2022/03/28 04:42:34;;;;;;;42.15;15.57;;;;;;;4.09;61.16;101073.91;5003997;28;20056;-80
2022/03/28 04:44:59;;;;;;;34.67;13.73;;;;;;;3.94;60.96;101047.06;4968491;28;20475;-80
2022/03/28 04:47:26;;;;;;;45.00;19.95;;;;;;;4.18;61.24;101071.41;5032534;28;20101;-80
2022/03/28 04:49:52;;;;;;;37.13;17.90;;;;;;;4.21;60.87;101073.38;4998623;28;20096;-79
2022/03/28 04:52:18;;;;;;;38.58;15.68;;;;;;;4.23;60.73;101073.78;4999467;28;20109;-79
2022/03/28 04:54:44;;;;;;;31.02;15.35;;;;;;;4.25;61.17;101071.31;4990124;28;20059;-78
2022/03/28 04:57:11;;;;;;;34.60;16.58;;;;;;;4.32;60.54;101065.63;5019263;28;20056;-78
2022/03/28 04:59:51;;;;;;;36.17;14.23;;;;;;;4.37;60.74;101072.84;5020071;28;20021;-79
2022/03/28 05:02:18;;;;;;;42.45;14.73;;;;;;;4.36;60.76;101057.13;5052022;28;20033;-78
2022/03/28 05:04:43;;;;;;;40.78;14.73;;;;;;;4.48;60.84;101070.72;5035412;28;20139;-76
2022/03/28 05:07:11;;;;;;;46.55;16.30;;;;;;;4.50;60.15;101064.63;5018835;28;20108;-78
2022/03/28 05:09:38;;;;;;;40.33;15.45;;;;;;;4.55;60.86;101064.19;5002696;28;20052;-78
2022/03/28 05:12:06;;;;;;;47.38;15.73;;;;;;;4.57;60.13;101068.19;5040173;28;20017;-80
2022/03/28 05:14:33;;;;;;;47.38;17.02;;;;;;;4.64;60.76;101065.28;5022098;28;20121;-78
2022/03/28 05:17:07;;;;;;;60.33;21.48;;;;;;;4.69;60.24;101066.84;5039621;28;20025;-80
2022/03/28 05:19:33;;;;;;;46.05;17.48;;;;;;;4.71;60.20;101065.22;5037929;28;20129;-78
2022/03/28 05:21:59;;;;;;;41.22;16.70;;;;;;;4.78;59.93;101061.53;5037329;28;20022;-76
2022/03/28 05:24:27;;;;;;;43.05;16.77;;;;;;;4.82;60.15;101059.44;5044707;28;20033;-78
2022/03/28 05:26:54;;;;;;;44.80;15.13;;;;;;;4.88;60.55;101063.41;5039906;28;20427;-79
2022/03/28 05:29:24;;;;;;;38.85;15.02;;;;;;;4.96;59.79;101056.44;5037321;28;20029;-78
2022/03/28 05:31:50;;;;;;;40.90;15.88;;;;;;;5.05;60.97;101055.94;5036293;28;20021;-80
2022/03/28 05:34:16;;;;;;;38.08;16.13;;;;;;;5.15;59.98;101057.81;5018664;28;20103;-78
2022/03/28 05:36:45;;;;;;;29.33;12.68;;;;;;;5.29;60.54;101054.00;5018472;28;20053;-79
2022/03/28 05:39:12;;;;;;;30.20;13.23;;;;;;;5.39;59.89;101038.91;5001779;28;20033;-80
2022/03/28 05:41:39;;;;;;;31.85;12.75;;;;;;;5.55;59.90;101054.03;5002167;28;20060;-79
2022/03/28 05:44:05;;;;;;;35.38;13.93;;;;;;;5.68;59.77;101047.75;5002454;28;20083;-79
2022/03/28 05:46:32;;;;;;;35.58;15.13;;;;;;;5.83;59.97;101043.50;5036495;28;20033;-79
2022/03/28 05:49:00;;;;;;;43.70;16.15;;;;;;;5.87;59.37;101021.66;5039428;28;20021;-78
2022/03/28 05:51:25;;;;;;;34.45;12.95;;;;;;;6.07;59.72;101025.34;5029160;28;20029;-79
2022/03/28 05:53:51;;;;;;;36.03;13.70;;;;;;;6.24;59.28;101031.91;5036259;28;20036;-79
2022/03/28 05:56:17;;;;;;;30.85;15.27;;;;;;;6.37;58.71;101032.88;5019164;28;20029;-79
2022/03/28 05:58:43;;;;;;;31.35;13.30;;;;;;;6.48;58.42;101022.97;5020801;28;20131;-80
2022/03/28 06:01:10;;;;;;;76.13;23.08;;;;;;;6.59;58.28;101016.31;5017849;28;20037;-74
2022/03/28 06:03:37;;;;;;;43.03;14.50;;;;;;;6.77;57.96;101023.19;5017446;28;20467;-74
2022/03/28 06:06:07;;;;;;;38.88;15.50;;;;;;;6.95;58.50;101020.03;5034449;28;20031;-73
2022/03/28 06:08:33;;;;;;;48.17;15.25;;;;;;;7.09;57.91;101018.91;4985052;28;20025;-75
2022/03/28 06:11:01;;;;;;;37.95;14.55;;;;;;;7.22;57.49;101003.63;5034910;28;20036;-73
2022/03/28 06:13:29;;;;;;;32.10;13.18;;;;;;;7.44;57.18;101011.66;5016925;28;20064;-74
2022/03/28 06:16:04;;;;;;;26.30;12.88;;;;;;;7.65;57.29;101005.44;5034463;28;20096;-74
2022/03/28 06:18:30;;;;;;;27.35;12.00;;;;;;;7.87;57.18;100997.22;5032853;28;20128;-74
2022/03/28 06:20:57;;;;;;;38.10;12.85;;;;;;;8.11;56.68;101002.25;5013330;28;20045;-73
2022/03/28 06:23:22;;;;;;;30.30;12.52;;;;;;;8.36;55.96;101004.47;5033589;28;20060;-73
2022/03/28 06:25:48;;;;;;;18.90;10.57;;;;;;;9.17;55.44;100998.50;5033876;28;20069;-74
2022/03/28 06:28:15;;;;;;;32.30;17.10;;;;;;;11.46;50.77;100987.97;5012696;28;20047;-74
2022/03/28 06:30:41;;;;;;;34.28;14.45;;;;;;;14.23;43.29;100966.22;5016962;28;20041;-74
2022/03/28 06:33:13;;;;;;;25.75;12.23;;;;;;;17.10;36.78;100961.13;5015607;28;20040;-73
2022/03/28 06:35:40;;;;;;;22.40;10.68;;;;;;;19.59;32.20;100939.75;5034163;28;20041;-74
2022/03/28 06:38:07;;;;;;;27.70;12.82;;;;;;;21.41;28.67;100933.69;5034446;28;20021;-73
2022/03/28 06:40:32;;;;;;;28.75;15.95;;;;;;;22.96;26.53;100935.38;5015977;28;20037;-74
2022/03/28 06:42:59;;;;;;;43.03;21.77;;;;;;;23.99;24.83;100936.28;5013590;28;20080;-74
2022/03/28 06:45:25;;;;;;;26.65;12.70;;;;;;;24.56;23.19;100935.97;5005916;28;20041;-72
2022/03/28 06:47:51;;;;;;;90.55;18.90;;;;;;;23.11;24.52;100942.28;5023755;28;20036;-73
2022/03/28 06:50:18;;;;;;;33.83;12.55;;;;;;;21.16;27.05;100948.69;4996327;28;20022;-73
2022/03/28 06:52:46;;;;;;;31.13;12.68;;;;;;;21.46;27.42;100940.81;4996203;28;20064;-74
2022/03/28 06:55:12;;;;;;;21.52;10.38;;;;;;;23.33;25.84;100941.16;5020337;28;20065;-73
2022/03/28 06:57:38;;;;;;;16.80;9.80;;;;;;;25.53;21.75;100931.84;5007063;28;20467;-74
2022/03/28 07:00:07;;;;;;;30.30;9.95;;;;;;;27.43;20.52;100928.66;5014844;28;20109;-74
2022/03/28 07:02:33;;;;;;;22.55;10.32;;;;;;;28.64;20.25;100915.28;5006900;28;20390;-74
2022/03/28 07:04:59;;;;;;;41.50;12.10;;;;;;;29.84;18.04;100921.03;5016988;28;20041;-76
2022/03/28 07:07:25;;;;;;;21.15;9.30;;;;;;;30.99;16.95;100916.22;5030927;28;20048;-75
2022/03/28 07:09:52;;;;;;;18.63;10.88;;;;;;;32.00;15.21;100915.66;5015519;28;20413;-74
2022/03/28 07:12:17;;;;;;;16.23;8.43;;;;;;;33.20;14.81;100910.91;5033147;28;20124;-75
2022/03/28 07:14:43;;;;;;;18.17;10.13;;;;;;;34.13;13.31;100913.91;5033986;28;20065;-74
2022/03/28 07:17:09;;;;;;;17.02;9.02;;;;;;;34.96;13.44;100905.63;5032555;28;20059;-74
2022/03/28 07:19:35;;;;;;;16.27;9.23;;;;;;;35.65;12.89;100907.19;5016087;28;20072;-73
2022/03/28 07:22:00;;;;;;;20.45;8.75;;;;;;;35.99;11.02;100910.81;5033110;28;20316;-73
2022/03/28 07:24:26;;;;;;;16.63;9.25;;;;;;;35.72;11.72;100906.16;5032558;28;20018;-73
2022/03/28 07:26:53;;;;;;;15.57;9.07;;;;;;;35.55;12.10;100900.59;5015523;28;20029;-75
2022/03/28 07:29:22;;;;;;;16.75;7.97;;;;;;;34.01;12.54;100902.00;5032465;28;20041;-73
2022/03/28 07:31:49;;;;;;;13.43;8.13;;;;;;;32.83;13.73;100903.66;4998361;28;20144;-74
2022/03/28 07:34:34;;;;;;;13.60;8.25;;;;;;;32.13;14.42;100893.81;4999298;28;20064;-73
2022/03/28 07:37:10;;;;;;;13.70;8.82;;;;;;;31.09;15.63;100892.75;5018715;28;20431;-76
2022/03/28 07:39:38;;;;;;;16.45;8.82;;;;;;;31.23;15.77;100903.53;5001839;28;20494;-78
2022/03/28 07:42:07;;;;;;;15.30;8.52;;;;;;;31.41;15.45;100892.47;5016537;28;20080;-78
2022/03/28 07:44:34;;;;;;;17.42;8.13;;;;;;;30.37;16.71;100886.00;4998466;28;20041;-78
2022/03/28 07:47:03;;;;;;;13.15;8.30;;;;;;;29.35;17.37;100884.44;5033351;28;20021;-77
2022/03/28 07:49:31;;;;;;;12.85;7.97;;;;;;;28.90;18.21;100876.66;5016284;28;20045;-77
2022/03/28 07:51:57;;;;;;;20.25;9.05;;;;;;;29.02;18.75;100874.81;5016153;28;20038;-76
2022/03/28 07:54:26;;;;;;;15.07;8.63;;;;;;;29.26;18.19;100879.16;5032630;28;20040;-78
2022/03/28 07:56:52;;;;;;;17.73;8.93;;;;;;;29.68;18.03;100875.53;5033818;28;20374;-77
2022/03/28 07:59:17;;;;;;;13.95;8.65;;;;;;;29.81;17.87;100872.25;5015761;28;20026;-79
2022/03/28 08:01:43;;;;;;;10.85;7.97;;;;;;;30.31;17.64;100867.84;5034641;28;20506;-78
2022/03/28 08:04:08;;;;;;;13.30;8.15;;;;;;;30.86;17.55;100876.19;5033488;28;20025;-77
2022/03/28 08:06:34;;;;;;;14.02;7.97;;;;;;;31.08;17.10;100864.75;5032172;28;20059;-78
2022/03/28 08:09:00;;;;;;;14.98;8.30;;;;;;;31.53;17.30;100855.16;5015409;28;20451;-78
2022/03/28 08:11:25;;;;;;;12.57;8.10;;;;;;;31.80;16.66;100849.22;5016309;28;20041;-78
2022/03/28 08:13:51;;;;;;;10.95;9.25;;;;;;;31.92;16.16;100855.28;5033282;28;20466;-76
2022/03/28 08:16:17;;;;;;;14.77;9.07;;;;;;;31.92;16.24;100844.25;5033364;28;20044;-76
2022/03/28 08:18:42;;;;;;;14.95;8.68;;;;;;;31.63;16.78;100846.38;5031732;28;20038;-77
2022/03/28 08:21:10;;;;;;;13.13;8.13;;;;;;;31.13;17.32;100835.00;5032785;28;20049;-77
2022/03/28 08:23:36;;;;;;;18.77;9.35;;;;;;;31.01;16.73;100836.16;5015037;28;20108;-80
2022/03/28 08:26:02;;;;;;;9.98;7.80;;;;;;;30.74;17.44;100827.31;5014131;28;20089;-78
2022/03/28 08:28:28;;;;;;;10.23;7.63;;;;;;;30.52;17.23;100831.34;5031651;28;20041;-78
2022/03/28 08:30:56;;;;;;;11.75;8.13;;;;;;;30.09;18.00;100824.03;5033151;28;20109;-79
2022/03/28 08:33:22;;;;;;;18.58;8.05;;;;;;;29.77;18.96;100821.97;5033159;28;20498;-79
2022/03/28 08:35:48;;;;;;;12.18;7.82;;;;;;;29.62;18.95;100819.97;5033132;28;20032;-78
2022/03/28 08:38:15;;;;;;;20.42;7.95;;;;;;;28.82;20.00;100817.25;5032735;28;20027;-79
2022/03/28 08:40:43;;;;;;;22.77;8.32;;;;;;;28.43;19.64;100812.94;5032036;28;20048;-84
2022/03/28 08:43:09;;;;;;;25.90;8.23;;;;;;;28.20;20.29;100809.34;5032046;28;20037;-76
2022/03/28 08:45:41;;;;;;;20.00;8.15;;;;;;;28.21;20.98;100813.84;5032597;28;20036;-74
2022/03/28 08:48:09;;;;;;;34.47;8.02;;;;;;;28.31;21.08;100805.97;5015598;28;20033;-71
2022/03/28 08:50:35;;;;;;;12.50;7.70;;;;;;;28.52;20.30;100796.88;5016135;28;20025;-74
2022/03/28 08:53:01;;;;;;;16.88;7.00;;;;;;;28.11;20.56;100799.03;5033173;28;20040;-77
2022/03/28 08:55:27;;;;;;;15.05;7.15;;;;;;;28.08;22.15;100793.50;5032860;28;20363;-77
2022/03/28 08:57:52;;;;;;;23.92;7.35;;;;;;;28.14;21.44;100797.03;5035953;28;20040;-76
2022/03/28 09:00:18;;;;;;;17.60;7.13;;;;;;;27.93;20.94;100791.41;5049715;28;20478;-78
2022/03/28 09:02:45;;;;;;;15.68;8.27;;;;;;;27.68;21.28;100779.56;5035846;28;20479;-77
2022/03/28 09:05:15;;;;;;;10.18;7.10;;;;;;;27.13;22.43;100787.41;5037299;28;20097;-81
2022/03/28 09:07:42;;;;;;;9.98;7.72;;;;;;;26.58;22.98;100784.97;5051483;28;20045;-79
2022/03/28 09:10:12;;;;;;;11.13;7.35;;;;;;;26.29;23.42;100783.50;5018379;28;20038;-80
2022/03/28 09:12:56;;;;;;;16.30;7.65;;;;;;;26.05;23.55;100770.91;5036331;28;20033;-79
2022/03/28 09:15:23;;;;;;;10.82;8.23;;;;;;;25.96;23.78;100774.38;5036289;28;20026;-79
2022/03/28 09:17:56;;;;;;;10.20;7.90;;;;;;;25.71;24.13;100768.19;5036280;28;20037;-80
2022/03/28 09:20:23;;;;;;;14.80;7.68;;;;;;;25.10;24.63;100774.94;5035908;28;20402;-79
2022/03/28 09:22:49;;;;;;;10.43;7.18;;;;;;;24.74;25.03;100774.75;5017358;28;20084;-74
2022/03/28 09:25:16;;;;;;;15.65;7.70;;;;;;;24.30;25.95;100773.69;5034114;28;20441;-77
2022/03/28 09:27:44;;;;;;;14.82;7.68;;;;;;;24.18;26.53;100775.28;5050323;28;20037;-78
2022/03/28 09:30:16;;;;;;;13.23;8.52;;;;;;;24.19;27.12;100766.00;5017624;28;20108;-78
2022/03/28 09:32:45;;;;;;;12.27;8.00;;;;;;;24.17;27.39;100759.97;5035676;28;20035;-78
2022/03/28 09:35:12;;;;;;;17.33;8.27;;;;;;;24.02;26.61;100765.56;5018448;28;20057;-79
2022/03/28 09:38:08;;;;;;;22.52;8.07;;;;;;;23.91;25.61;100749.13;5036284;28;20033;-77
2022/03/28 09:40:40;;;;;;;18.65;8.80;;;;;;;23.93;26.77;100757.28;5037813;28;20426;-77
2022/03/28 09:43:15;;;;;;;9.35;7.63;;;;;;;23.78;25.78;100752.03;5038927;28;20431;-78
2022/03/28 09:45:41;;;;;;;15.82;8.52;;;;;;;23.69;25.68;100743.78;5043464;28;20044;-79
2022/03/28 09:48:08;;;;;;;11.27;7.35;;;;;;;23.55;26.59;100733.50;5034250;28;20506;-80
2022/03/28 09:50:40;;;;;;;14.52;8.02;;;;;;;23.11;27.33;100729.31;5017313;28;20087;-79
2022/03/28 09:53:09;;;;;;;14.15;8.40;;;;;;;22.94;27.25;100729.63;5017725;28;20052;-79
2022/03/28 09:55:51;;;;;;;15.00;7.22;;;;;;;22.84;28.15;100724.81;5036482;28;20071;-77
2022/03/28 09:58:32;;;;;;;14.13;8.05;;;;;;;22.94;28.92;100723.03;5034707;28;20033;-74
2022/03/28 10:00:59;;;;;;;20.10;8.95;;;;;;;23.01;27.91;100728.97;5034284;28;20478;-74
2022/03/28 10:03:28;;;;;;;11.02;7.68;;;;;;;23.07;28.03;100720.16;5034272;28;20463;-77
2022/03/28 10:05:58;;;;;;;13.30;8.68;;;;;;;23.10;27.86;100702.38;5016185;28;20045;-76
2022/03/28 10:08:26;;;;;;;16.08;8.52;;;;;;;23.06;28.64;100690.31;5016833;28;20060;-76
2022/03/28 10:10:52;;;;;;;11.95;8.40;;;;;;;23.03;28.77;100703.06;5034446;28;20025;-75
2022/03/28 10:13:18;;;;;;;13.32;8.52;;;;;;;22.81;29.24;100691.81;5033323;28;20044;-74
2022/03/28 10:15:44;;;;;;;14.15;7.82;;;;;;;22.74;29.04;100684.53;5016089;28;20025;-73
2022/03/28 10:18:11;;;;;;;12.02;8.25;;;;;;;22.71;29.72;100681.97;5015678;28;20030;-73
2022/03/28 10:20:43;;;;;;;12.35;7.85;;;;;;;22.65;28.78;100682.03;4996744;28;20042;-75
2022/03/28 10:23:12;;;;;;;24.70;15.82;;;;;;;22.54;28.25;100679.34;5013229;28;20091;-74
2022/03/28 10:25:38;;;;;;;18.05;8.02;;;;;;;22.67;28.57;100673.56;4997922;28;20139;-75
2022/03/28 10:28:06;;;;;;;17.38;8.32;;;;;;;22.62;28.49;100673.66;4996596;28;20073;-76
2022/03/28 10:30:33;;;;;;;17.58;8.38;;;;;;;22.45;27.54;100679.00;5012694;28;20041;-73
2022/03/28 10:33:16;;;;;;;17.27;7.85;;;;;;;22.24;26.70;100676.69;5015036;28;20378;-79
2022/03/28 10:36:01;;;;;;;12.70;7.80;;;;;;;22.15;28.79;100665.47;5045929;28;20029;-72
2022/03/28 10:38:27;;;;;;;13.68;7.93;;;;;;;22.05;28.89;100663.53;5014117;28;20025;-72
2022/03/28 10:40:55;;;;;;;12.65;7.97;;;;;;;21.85;28.68;100667.75;5013887;28;20056;-74
2022/03/28 10:43:24;;;;;;;27.67;9.60;;;;;;;21.49;29.50;100659.28;5013995;28;20038;-75
2022/03/28 10:45:55;;;;;;;17.27;8.10;;;;;;;21.42;29.59;100659.88;5012949;28;20475;-76
2022/03/28 10:48:53;;;;;;;10.27;7.78;;;;;;;21.39;29.33;100652.31;4996656;28;20037;-74
2022/03/28 10:51:20;;;;;;;19.02;9.57;;;;;;;21.38;29.94;100644.16;5013993;28;20029;-74
2022/03/28 10:53:48;;;;;;;33.30;9.65;;;;;;;21.40;30.75;100636.47;5013431;28;20026;-74
2022/03/28 10:56:24;;;;;;;15.00;8.88;;;;;;;21.50;29.12;100628.19;5012712;28;20037;-75
2022/03/28 10:58:53;;;;;;;14.63;9.10;;;;;;;21.35;29.03;100627.84;5014323;28;20402;-73
2022/03/28 11:01:25;;;;;;;78.65;13.05;;;;;;;21.30;29.45;100626.59;5013673;28;20123;-71
2022/03/28 11:03:53;;;;;;;68.32;13.45;;;;;;;21.33;29.50;100611.00;5013660;28;20026;-74
2022/03/28 11:07:00;;;;;;;21.25;9.90;;;;;;;21.26;29.30;100599.25;5013437;28;20034;-74
2022/03/28 11:09:45;;;;;;;16.95;8.63;;;;;;;21.36;30.72;100601.19;5013307;28;20470;-74
2022/03/28 11:12:21;;;;;;;18.40;9.40;;;;;;;21.42;30.64;100601.91;5013301;28;20478;-72
2022/03/28 11:14:49;;;;;;;18.83;10.07;;;;;;;21.20;29.52;100598.53;5011996;28;20064;-75
2022/03/28 11:17:26;;;;;;;25.08;9.27;;;;;;;21.23;31.30;100577.16;5013622;28;20091;-73
2022/03/28 11:19:54;;;;;;;13.90;9.13;;;;;;;21.07;30.91;100590.50;5008892;28;20140;-73
2022/03/28 11:22:37;;;;;;;14.88;7.88;;;;;;;20.92;30.68;100590.19;4995534;28;20042;-74
2022/03/28 11:25:03;;;;;;;12.52;8.60;;;;;;;21.06;31.27;100577.38;5032247;28;20065;-75